Tiempo atmosférico en la estación meteorológica de Málaga, Centro Meteorológico, Málaga (60 m.)



Fecha
DESCASC
Temp. máxima en grados centígrados (hora)
DESCASC
Temp. mínima en grados centígrados (hora)
DESCASC
Temp. media en grados centígrados
DESCASC
Racha de viento máxima en m/sg (hora)
DESCASC
Velocidad máxima media en intervalos de 10 minutos(hora)
DESCASC
Precipitaciones diarias en mm
DESCASC
Precipitaciones de 00:00 a 06:00 en mm
DESCASC
Precipitaciones de 06:00 a 12:00 en mm
DESCASC
Precipitaciones de 12:00 a 18:00 en mm
DESCASC
Precipitaciones de 18:00 a 24:00 en mm
DESCASC
18-08-2019 32.7 (20:00) 20.5 (07:50) 26.6 6.67 (15:40) 4.72 (16:00) -- 0 -- 0 0
17-08-2019 29.4 (16:00) 20.2 (07:50) 24.8 6.11 (13:40) 3.89 (16:50) 0 0 0 0 0
16-08-2019 31.6 (16:50) 21.3 (07:50) 26.4 6.67 (16:10) 4.44 (17:00) 0 0 0 0 0
15-08-2019 30.3 (13:00) 22 (00:00) 26.1 6.67 (14:40) 4.17 (14:30) 0 0 0 0 0
14-08-2019 30.8 (15:40) 24.4 (00:00) 27.6 6.39 (00:10) 4.17 (16:20) 0 0 0 0 0
13-08-2019 32.7 (16:40) 23.3 (00:00) 28 7.5 (17:20) 5.28 (17:20) 0 0 0 0 0
12-08-2019 37.7 (16:50) 23.5 (00:00) 30.6 11.11 (11:50) 7.5 (11:50) 0 0 0 0 0
11-08-2019 36.8 (17:00) 24.5 (00:00) 30.6 12.22 (14:50) 6.67 (10:50) 0 0 0 0 0
10-08-2019 39 (14:50) 26.8 (00:00) 32.9 10.83 (11:20) 7.78 (11:30) 0 0 0 0 0
09-08-2019 40.4 (16:00) 23.2 (00:00) 31.8 8.06 (19:40) 4.72 (11:10) 0 0 0 0 0
08-08-2019 34.2 (14:00) 24.7 (00:00) 29.5 7.22 (16:20) 4.72 (15:50) 0 0 0 0 0
07-08-2019 40.1 (15:00) 24 (00:00) 32 9.17 (12:50) 6.11 (12:40) 0 0 0 0 0
06-08-2019 33.5 (13:20) 22.3 (00:00) 27.9 8.33 (20:40) 5 (20:50) 0 0 0 0 0
05-08-2019 31.3 (12:30) 22.3 (00:00) 26.8 7.78 (13:30) 5.56 (14:20) 0 0 0 0 0
04-08-2019 29.6 (15:50) 22.9 (00:00) 26.3 7.5 (16:10) 5 (16:30) 0 0 0 0 0
03-08-2019 31.2 (14:30) 22.3 (00:00) 26.8 7.78 (17:00) 4.72 (16:30) 0 0 0 0 0
02-08-2019 29.3 (10:40) 22.2 (00:00) 25.8 7.78 (13:50) 5.56 (15:00) 0 0 0 0 0
01-08-2019 32.1 (12:50) 23.7 (00:00) 27.9 8.61 (13:40) 6.11 (13:50) 0 0 0 0 0
31-07-2019 31.6 (14:00) 23 (00:00) 27.3 8.33 (00:30) 4.72 (00:30) 0 0 0 0 0
30-07-2019 30.9 (16:20) 24.7 (00:00) 27.8 6.94 (14:40) 4.72 (14:40) 0 0 0 0 0
29-07-2019 31.5 (11:30) 21.8 (00:00) 26.6 7.5 (17:50) 5.28 (17:40) 0 0 0 0 0
28-07-2019 32 (13:00) 22.8 (00:00) 27.4 8.33 (09:00) 5.56 (09:40) 0 0 0 0 0
27-07-2019 32.9 (17:00) 23.8 (00:00) 28.4 12.5 (19:30) 6.67 (19:30) 0 0 0 0 0
26-07-2019 36.5 (15:30) 22.4 (00:00) 29.4 9.72 (19:30) 5.28 (23:00) 0 0 0 0 0
25-07-2019 33.2 (14:10) 23.2 (00:00) 28.2 7.22 (14:30) 4.72 (14:30) 0 0 0 0 0
24-07-2019 33.5 (15:00) 22.2 (00:00) 27.9 7.22 (16:10) 4.17 (15:20) 0 0 0 0 0
23-07-2019 33.6 (14:10) 23.3 (00:00) 28.4 7.5 (15:00) 5.28 (15:20) 0 0 0 0 0
22-07-2019 31.7 (14:40) 23.8 (00:00) 27.8 7.5 (17:10) 5 (17:10) 0 0 0 0 0

Gráficas

Temp. máximas Temp. mínimas Temp. medias Precipitaciones Rachas de viento máximas Velocidades máximas media en intervalos de 10 minutos

Datos horarios

Fecha y hora oficial Temperatura (ºC) Velocidad del viento (km/h) Dirección del viento Racha (km/h) Dirección de racha Precipitación (mm) Presión (hPa) Tendencia (hPa) Humedad (%)
2019-08-20 23:00:00 25.8 9 Sudeste 18 Sudeste 0 1010.6 2.1 77
2019-08-20 22:00:00 25.6 9 Sudeste 15 Sudeste 0 1009.7 1.2 77
2019-08-20 21:00:00 25.9 11 Sudeste 19 Sudeste 0 1008.9 0.4 74
2019-08-20 20:00:00 27.2 12 Sudeste 20 Sudeste 0 1008.5 -0.2 70
2019-08-20 19:00:00 28 12 Sudeste 22 Sudeste 0 1008.5 -0.5 68
2019-08-20 18:00:00 28.2 16 Sudeste 25 Sudeste 0 1008.5 -0.4 68
2019-08-20 17:00:00 28.3 18 Sudeste 29 Sudeste 0 1008.7 -0.3 68
2019-08-20 16:00:00 28.6 18 Sudeste 30 Sudeste 0 1009 -0.5 67
2019-08-20 15:00:00 29.6 17 Sudeste 26 Sudeste 0 1008.9 -0.7 62
2019-08-20 14:00:00 29.5 14 Sudeste 24 Sudeste 0 1009 -0.2 62
2019-08-20 13:00:00 29.3 12 Sudeste 21 Sudeste 0 1009.5 0.9 65
2019-08-20 12:00:00 27.8 13 Sudeste 19 Sudeste 0 1009.6 1.3 70
2019-08-20 11:00:00 27.4 9 Sudeste 19 Sudeste 0 1009.2 1.3 68
2019-08-20 10:00:00 27 3 Sudoeste 9 Sudoeste 0 1008.6 1 67
2019-08-20 09:00:00 24.7 0 Calma 8 Noroeste 0 1008.3 0.9 79
2019-08-20 08:00:00 23 0 Calma 9 Noroeste 0 1007.9 0.4 86
2019-08-20 07:00:00 23 3 Noroeste 10 Oeste 0 1007.6 0.1 87
2019-08-20 06:00:00 23.1 6 Oeste 10 Oeste 0 1007.4 0 86
2019-08-20 05:00:00 23.8 3 Noroeste 11 Este 0 1007.5 -0.2 81
2019-08-20 04:00:00 24 5 Sudeste 17 Sudeste 0 1007.5 0.4 80
2019-08-20 03:00:00 23.8 12 Sudeste 21 Sudeste 0 1007.4 0.9 91
2019-08-20 02:00:00 24.6 10 Este 17 Este 0 1007.7 1.1 88
2019-08-20 01:00:00 26.3 5 Sudeste 8 Sudeste 0 1007.1 1.6 74
2019-08-20 00:00:00 26.7 4 Oeste 9 Oeste 0 1006.5 1.5 65
2019-08-19 23:00:00 26.8 2 Sudeste 5 Sudoeste 0 1006.6 2.2 68
2019-08-19 22:00:00 27.5 4 Sudeste 15 Este 0 1005.5 0.6 65
2019-08-19 21:00:00 29.5 6 Este 17 Este 0 1005 -0.1 52
2019-08-19 20:00:00 31.8 9 Este 22 Este 0 1004.4 -1 42
2019-08-19 19:00:00 31.5 14 Este 26 Este 0 1004.9 -0.9 43
2019-08-19 18:00:00 31.6 15 Este 27 Este 0 1005.1 -1.3 43
2019-08-19 17:00:00 32.6 13 Este 24 Este 0 1005.4 -1.3 40
2019-08-19 16:00:00 34.3 12 Sudeste 19 Este 0 1005.8 -1.3 35
2019-08-19 15:00:00 32.5 11 Sudeste 25 Este 0 1006.4 -0.4 40
2019-08-19 14:00:00 30.6 14 Este 23 Este 0 1006.7 -0.2 44
2019-08-19 13:00:00 31.8 14 Este 21 Oeste 0 1007.1 0.3 40
2019-08-19 12:00:00 35.3 15 Oeste 27 Oeste 0 1006.8 0 32
2019-08-19 11:00:00 32.6 17 Oeste 27 Oeste 0 1006.9 0.6 35
2019-08-19 10:00:00 29.9 16 Oeste 27 Oeste 0 1006.8 1 38
2019-08-19 09:00:00 27.3 13 Oeste 21 Oeste 0 1006.8 1.3 40
2019-08-19 08:00:00 26.4 12 Oeste 21 Noroeste 0 1006.3 0.1 40
2019-08-19 07:00:00 26.9 9 Noroeste 20 Noroeste 0 1005.8 -0.3 39
2019-08-19 06:00:00 27.8 10 Oeste 18 Oeste 0 1005.5 -0.8 37
2019-08-19 05:00:00 28 10 Oeste 18 Oeste 0 1006.2 -0.2 35
2019-08-19 04:00:00 29.4 10 Oeste 18 Noroeste 0 1006.1 -0.4 33
2019-08-19 03:00:00 29.1 9 Oeste 15 Noroeste 0 1006.3 0 32
2019-08-19 02:00:00 29 8 Oeste 17 Noroeste 0 1006.4 0.6 37
2019-08-19 01:00:00 28.9 9 Oeste 14 Oeste 0 1006.5 1.3 41
2019-08-19 00:00:00 28.9 8 Oeste 13 Oeste 0 1006.3 1.4 46
2019-08-18 23:00:00 28.8 8 Oeste 10 Oeste 0 1005.8 1.2 46
2019-08-18 22:00:00 28.5 6 Oeste 10 Oeste 0 1005.2 0 52
2019-08-18 21:00:00 29.6 3 Sur 14 Este 0 1004.9 -0.6 49
2019-08-18 20:00:00 32.7 8 Este 19 Este 0 1004.6 -1.3 40
2019-08-18 19:00:00 30.2 13 Este 21 Este 0 1005.2 -1.3 49
2019-08-18 18:00:00 30.6 12 Este 21 Este 0 1005.5 -1.4 47
2019-08-18 17:00:00 30.9 12 Este 24 Este 0 1005.9 -1.2 49
2019-08-18 16:00:00 29.3 17 Este 24 Sudeste 0 1006.5 -0.9 49
2019-08-18 15:00:00 29.5 14 Este 22 Sudeste 0 1006.9 -0.5 49
2019-08-18 14:00:00 29.9 13 Este 21 Este 0 1007.1 0.1 46
2019-08-18 13:00:00 29.9 14 Sudeste 19 Sudeste 0 1007.4 0.6 45
2019-08-18 12:00:00 30.4 9 Sudeste 13 Sudeste 0 1007.4 1.1 44
2019-08-18 11:00:00 29.6 3 Sudoeste 8 Sudoeste 0 1007 1 40
2019-08-18 10:00:00 26.7 3 Sudeste 6 Sudeste 0 1006.8 1 52
2019-08-18 09:00:00 23.2 0 Calma 7 Oeste 0 1006.3 0.5 59
2019-08-18 08:00:00 20.9 0 Calma 4 Sur 0.7 1006 0.3 64
2019-08-18 07:00:00 21.9 3 Sudeste 10 Sudoeste 1.2 1005.8 -0.3 58
2019-08-18 06:00:00 23 5 Oeste 13 Noroeste 0 1005.8 -1.3 53
2019-08-18 05:00:00 24.2 6 Noroeste 13 Noroeste 0 1005.7 -1.9 50
2019-08-18 04:00:00 24.8 8 Noroeste 12 Norte 0 1006.1 -1.6 50
2019-08-18 03:00:00 22.9 4 Noroeste 9 Noroeste 0 1007.1 -0.5 62
2019-08-18 02:00:00 23.7 0 Calma 8 Oeste 0 1007.6 0.4 71
2019-08-18 01:00:00 23.3 3 Oeste 5 Oeste 0 1007.7 1.1 68
2019-08-18 00:00:00 24.4 0 Calma 3 Noroeste 0 1007.6 1.2 82
2019-08-17 23:00:00 24.8 2 Oeste 8 Oeste 0 1007.2 0.9 80
2019-08-17 22:00:00 25.8 3 Sur 5 Este 0 1006.6 -0.6 73
2019-08-17 21:00:00 26.3 5 Sudeste 12 Sudeste 0 1006.4 -1.2 71
2019-08-17 20:00:00 26.8 10 Este 17 Sudeste 0 1006.3 -1.5 70
2019-08-17 19:00:00 26.8 10 Sudeste 18 Sudeste 0 1007.2 -1.1 70
2019-08-17 18:00:00 28.1 12 Sudeste 19 Sudeste 0 1007.6 -1.2 65
2019-08-17 17:00:00 28 13 Sudeste 20 Sudeste 0 1007.8 -1.5 65
2019-08-17 16:00:00 29.1 11 Sudeste 19 Este 0 1008.3 -1.1 62
2019-08-17 15:00:00 28 11 Sudeste 21 Sudeste 0 1008.8 -1.1 64
2019-08-17 14:00:00 27.8 13 Sudeste 22 Sudeste 0 1009.3 -0.3 67
2019-08-17 13:00:00 28.1 11 Este 20 Este 0 1009.4 -0.2 62
2019-08-17 12:00:00 28.5 11 Sudeste 18 Sudeste 0 1009.9 0.3 59
2019-08-17 11:00:00 29.1 9 Sudeste 15 Sudeste 0 1009.6 0 52
2019-08-17 10:00:00 26.6 4 Sudoeste 6 Sudoeste 0 1009.6 0.3 56
2019-08-17 09:00:00 22.8 3 Oeste 7 Noroeste 0 1009.6 0.1 64
2019-08-17 08:00:00 20.2 4 Oeste 9 Oeste 0 1009.6 -0.1 80
2019-08-17 07:00:00 21.4 2 Noroeste 4 Noroeste 0 1009.3 -0.4 85
2019-08-17 06:00:00 21.4 3 Oeste 6 Oeste 0 1009.5 -0.5 82
2019-08-17 05:00:00 22.4 2 Este 4 Este 0 1009.7 -0.8 88
2019-08-17 04:00:00 22.6 4 Oeste 5 Oeste 0 1009.7 -0.8 86
2019-08-17 03:00:00 23.4 0 Calma 3 Nordeste 0 1010 -0.4 89
2019-08-17 02:00:00 23.9 0 Calma 2 Sudeste 0 1010.5 0.1 88
2019-08-17 01:00:00 24.3 2 Oeste 5 Oeste 0 1010.5 0.7 86
2019-08-17 00:00:00 24.7 2 Sudoeste 5 Oeste 0 1010.4 1 85
2019-08-16 23:00:00 24.9 0 Calma 9 Sudeste 0 1010.4 1.1 83
2019-08-16 22:00:00 25.5 6 Sudeste 12 Sudeste 0 1009.8 0.4 80
2019-08-16 21:00:00 26.1 9 Sudeste 19 Este 0 1009.4 -0.1 73
2019-08-16 20:00:00 27.5 12 Sudeste 19 Sudeste 0 1009.3 -0.9 68
2019-08-16 19:00:00 28.3 14 Sudeste 24 Sudeste 0 1009.4 -1.1 61
2019-08-16 18:00:00 29.9 13 Sudeste 22 Sudeste 0 1009.5 -1.5 46
2019-08-16 17:00:00 30.5 16 Sudeste 24 Sudeste 0 1010.2 -1.1 44
2019-08-16 16:00:00 31.4 14 Sudeste 23 Sudeste 0 1010.5 -1 41
2019-08-16 15:00:00 30 14 Sudeste 22 Sudeste 0 1011 -0.6 49
2019-08-16 14:00:00 30.3 12 Sudeste 20 Sudeste 0 1011.3 0.1 49
2019-08-16 13:00:00 31 12 Sudeste 17 Sudeste 0 1011.5 0 43
2019-08-16 12:00:00 30 8 Sudeste 17 Este 0 1011.6 0.2 41
2019-08-16 11:00:00 29.3 3 Sudeste 9 Este 0 1011.2 -0.2 46
2019-08-16 10:00:00 26.8 4 Este 8 Sudeste 0 1011.5 1 55
2019-08-16 09:00:00 24.3 3 Sudeste 7 Sudeste 0 1011.4 1.1 68
2019-08-16 08:00:00 21.4 3 Este 6 Sur 0 1011.4 1 59
2019-08-16 07:00:00 21.5 0 Calma 6 Oeste 0 1010.5 -0.2 58
2019-08-16 06:00:00 22.6 0 Calma 3 Norte 0 1010.3 -0.7 58
2019-08-16 05:00:00 23.3 0 Calma 4 Oeste 0 1010.4 -0.8 55
2019-08-16 04:00:00 23.7 2 Noroeste 6 Norte 0 1010.7 -0.6 53
2019-08-16 03:00:00 24 2 Oeste 10 Noroeste 0 1011 -0.3 55
2019-08-16 02:00:00 24.3 6 Oeste 10 Oeste 0 1011.2 0.2 64
2019-08-16 01:00:00 24.7 4 Norte 8 Norte 0 1011.3 0.8 64
2019-08-16 00:00:00 24.8 5 Oeste 7 Oeste 0 1011.3 1.1 70
2019-08-15 23:00:00 25 0 Calma 5 Sudeste 0 1011 1.1 73
2019-08-15 22:00:00 25.4 4 Sudeste 9 Sudeste 0 1010.5 0.4 68
2019-08-15 21:00:00 26.6 8 Sudeste 14 Sudeste 0 1010.2 0.2 58
2019-08-15 20:00:00 27.4 11 Sudeste 18 Sudeste 0 1009.9 -0.5 59
2019-08-15 19:00:00 28.1 12 Sudeste 21 Sudeste 0 1010.1 -0.7 61
2019-08-15 18:00:00 28.4 15 Sudeste 21 Sudeste 0 1010 -1.1 59
2019-08-15 17:00:00 28.7 13 Sudeste 21 Sudeste 0 1010.4 -0.9 61
2019-08-15 16:00:00 28.7 13 Sudeste 21 Este 0 1010.8 -0.7 61
2019-08-15 15:00:00 28.9 14 Sudeste 24 Sudeste 0 1011.1 -0.7 59
2019-08-15 14:00:00 29.2 14 Sudeste 22 Sudeste 0 1011.3 -0.1 58
2019-08-15 13:00:00 30.3 10 Sudeste 18 Sudeste 0 1011.5 0.2 53
2019-08-15 12:00:00 28.8 10 Sudeste 15 Sudeste 0 1011.8 0.5 55
2019-08-15 11:00:00 29.4 6 Sudeste 13 Sudeste 0 1011.4 0.2 55
2019-08-15 10:00:00 26.9 4 Sudoeste 8 Oeste 0 1011.3 0.4 67
2019-08-15 09:00:00 23.6 6 Sudoeste 7 Sudoeste 0 1011.3 0.4 82
2019-08-15 08:00:00 22 5 Oeste 8 Oeste 0 1011.2 0.2 85
2019-08-15 07:00:00 22.6 0 Calma 8 Noroeste 0 1010.9 -0.3 85
2019-08-15 06:00:00 22.7 2 Noroeste 7 Oeste 0 1010.9 -0.7 88
2019-08-15 05:00:00 22.8 5 Oeste 6 Oeste 0 1011 -1 88
2019-08-15 04:00:00 23.2 4 Oeste 5 Noroeste 0 1011.2 -1 88
2019-08-15 03:00:00 23.6 0 Calma 4 Noroeste 0 1011.6 -0.3 88
2019-08-15 02:00:00 23.8 0 Calma 6 Sur 0 1012 0.3 88
2019-08-15 01:00:00 24.3 5 Sur 8 Sudeste 0 1012.2 1.1 85
2019-08-15 00:00:00 24.5 6 Sudeste 10 Sudeste 0 1011.9 1.4 83
2019-08-14 23:00:00 24.8 5 Sur 7 Sur 0 1011.7 1.4 83
2019-08-14 22:00:00 24.9 4 Sudeste 13 Sudeste 0 1011.1 0.5 82
2019-08-14 21:00:00 25.7 8 Sudeste 15 Sudeste 0 1010.5 -0.4 77
2019-08-14 20:00:00 27 10 Sudeste 18 Sudeste 0 1010.3 -1 69
2019-08-14 19:00:00 28 13 Sudeste 18 Sudeste 0 1010.6 -1.1 64
2019-08-14 18:00:00 28.3 11 Sudeste 22 Este 0 1010.9 -1.4 62
2019-08-14 17:00:00 29.5 13 Sudeste 23 Sur 0 1011.3 -1.7 58
2019-08-14 16:00:00 30.8 14 Sur 22 Sudeste 0 1011.7 -1.8 58
2019-08-14 15:00:00 30.1 12 Sudeste 21 Sudeste 0 1012.3 -1.2 61
2019-08-14 14:00:00 29.3 15 Sudeste 22 Sudeste 0 1013 -0.2 61
2019-08-14 13:00:00 28.6 14 Sudeste 22 Sudeste 0 1013.5 0.2 64
2019-08-14 12:00:00 28.5 10 Sudeste 20 Sudeste 0 1013.5 0.6 62
2019-08-14 11:00:00 27.3 9 Sudeste 14 Sudeste 0 1013.2 0.5 80
2019-08-14 10:00:00 25.3 6 Sudeste 13 Sudeste 0 1013.3 0.9 91
2019-08-14 09:00:00 24.8 9 Sudeste 14 Sudeste 0 1012.9 0.6 92
2019-08-14 08:00:00 24.6 9 Sudeste 14 Sudeste 0 1012.7 0.4 92
2019-08-14 07:00:00 24.7 9 Sudeste 13 Sudeste 0 1012.4 0 93
2019-08-14 06:00:00 24.7 8 Sudeste 13 Sudeste 0 1012.3 -0.3 93
2019-08-14 05:00:00 24.8 7 Este 12 Sudeste 0 1012.3 -0.5 91
2019-08-14 04:00:00 25 7 Sudeste 16 Este 0 1012.4 -0.1 91
2019-08-14 03:00:00 25 10 Este 16 Este 0 1012.6 0.2 91
2019-08-14 02:00:00 25 10 Sudeste 19 Sudeste 0 1012.8 0.9 91
2019-08-14 01:00:00 25.3 11 Sudeste 23 Sudeste 0 1012.5 1.3 89
2019-08-14 00:00:00 25.5 12 Sudeste 19 Sudeste 0 1012.4 1.9 88
2019-08-13 23:00:00 25.5 14 Sudeste 19 Sudeste 0 1011.9 1.6 85
2019-08-13 22:00:00 25.8 10 Sudeste 17 Sudeste 0 1011.2 1.1 80
2019-08-13 21:00:00 26.4 10 Sudeste 20 Sudeste 0 1010.5 0.4 77
2019-08-13 20:00:00 27.4 14 Sudeste 21 Sudeste 0 1010.3 0 73
2019-08-13 19:00:00 28.4 13 Este 23 Sudeste 0 1010.1 -0.3 68
2019-08-13 18:00:00 29.1 14 Sudeste 27 Sudeste 0 1010.1 -0.5 68
2019-08-13 17:00:00 30.3 17 Sudeste 26 Sur 0 1010.3 -0.4 62
2019-08-13 16:00:00 32.1 15 Sur 27 Sur 0 1010.4 -0.3 59
2019-08-13 15:00:00 32.4 16 Sur 27 Sudeste 0 1010.6 -0.1 59
2019-08-13 14:00:00 31.7 17 Sudeste 24 Sudeste 0 1010.7 0 58
2019-08-13 13:00:00 31.5 12 Sudeste 22 Sudeste 0 1010.7 0 61
2019-08-13 12:00:00 30.5 10 Sudeste 18 Sudeste 0 1010.7 0.3 62
2019-08-13 11:00:00 28.8 5 Sudeste 15 Sur 0 1010.7 0.8 67
2019-08-13 10:00:00 26.9 7 Sudoeste 9 Sudoeste 0 1010.7 1.5 58
2019-08-13 09:00:00 25.8 5 Oeste 8 Oeste 0 1010.4 1.3 55
2019-08-13 08:00:00 24.9 4 Noroeste 8 Noroeste 0 1009.9 0.6 55
2019-08-13 07:00:00 24.7 4 Norte 8 Norte 0 1009.2 -0.2 61
2019-08-13 06:00:00 24.1 3 Noroeste 14 Noroeste 0 1009.1 -0.3 59
2019-08-13 05:00:00 24.1 6 Noroeste 13 Noroeste 0 1009.3 -0.7 56
2019-08-13 04:00:00 23.6 6 Noroeste 10 Noroeste 0 1009.4 -0.2 62
2019-08-13 03:00:00 23.8 4 Oeste 8 Sudeste 0 1009.4 0 61
2019-08-13 02:00:00 24.6 3 Sudeste 19 Este 0 1010 1.2 55
2019-08-13 01:00:00 26.1 10 Este 17 Sudeste 0 1009.6 1.8 50
2019-08-13 00:00:00 23.9 0 Calma 4 Sudeste 0 1009.4 2.6 52
2019-08-12 23:00:00 24 0 Calma 8 Sudeste 0 1008.8 2.7 48
2019-08-12 22:00:00 25.2 6 Sudeste 14 Este 0 1007.8 2.1 41
2019-08-12 21:00:00 26.6 10 Sudeste 19 Este 0 1006.8 1.3 35
2019-08-12 20:00:00 27.8 13 Este 26 Este 0 1006.1 0.3 37
2019-08-12 19:00:00 28.7 17 Este 27 Este 0 1005.7 -0.3 32
2019-08-12 18:00:00 30.6 14 Este 27 Nordeste 0 1005.5 -1.3 31
2019-08-12 17:00:00 33.5 13 Este 28 Este 0 1005.8 -1.6 25
2019-08-12 16:00:00 36.2 15 Oeste 27 Oeste 0 1006 -1.7 21
2019-08-12 15:00:00 34.7 17 Sudoeste 33 Oeste 0 1006.8 -0.9 24
2019-08-12 14:00:00 32.1 22 Oeste 33 Oeste 0 1007.4 0 26
2019-08-12 13:00:00 30.6 24 Oeste 37 Oeste 0 1007.7 0.5 28
2019-08-12 12:00:00 29.5 24 Oeste 40 Oeste 0 1007.7 0.3 29
2019-08-12 11:00:00 27.6 23 Oeste 37 Oeste 0 1007.4 0.5 31
2019-08-12 10:00:00 25.4 20 Oeste 36 Oeste 0 1007.2 0.6 32
2019-08-12 09:00:00 24.9 21 Oeste 33 Oeste 0 1007.4 0.7 33
2019-08-12 08:00:00 24.1 17 Oeste 29 Oeste 0 1006.9 0.1 34
2019-08-12 07:00:00 24.4 17 Oeste 33 Oeste 0 1006.6 -0.8 32
2019-08-12 06:00:00 24.8 20 Oeste 30 Oeste 0 1006.7 -0.8 32
2019-08-12 05:00:00 25.5 17 Oeste 29 Oeste 0 1006.8 -1.4 31
2019-08-12 04:00:00 26 15 Oeste 26 Oeste 0 1007.4 -0.7 31
2019-08-12 03:00:00 26.9 12 Oeste 26 Oeste 0 1007.5 -0.5 30
2019-08-12 02:00:00 27.9 16 Oeste 26 Noroeste 0 1008.2 0.6 29
2019-08-12 01:00:00 29.5 12 Noroeste 24 Oeste 0 1008.1 1.2 27
2019-08-12 00:00:00 29.6 12 Oeste 24 Oeste 0 1008 1.8 27
2019-08-11 23:00:00 30.3 6 Oeste 24 Oeste 0 1007.6 1.8 26
2019-08-11 22:00:00 31.6 12 Noroeste 26 Oeste 0 1006.9 1.1 24
2019-08-11 21:00:00 33.5 12 Noroeste 30 Oeste 0 1006.2 0.4 23
2019-08-11 20:00:00 35 13 Noroeste 33 Noroeste 0 1005.8 -0.3 23
2019-08-11 19:00:00 35.9 11 Noroeste 36 Noroeste 0 1005.8 -0.7 23
2019-08-11 18:00:00 36.2 12 Noroeste 36 Noroeste 0 1005.8 -1.3 23
2019-08-11 17:00:00 36.6 19 Oeste 38 Oeste 0 1006.1 -1.5 23
2019-08-11 16:00:00 36.2 14 Noroeste 43 Noroeste 0 1006.5 -1.4 24
2019-08-11 15:00:00 35.4 22 Noroeste 44 Oeste 0 1007.1 -1.1 26
2019-08-11 14:00:00 35 23 Oeste 38 Noroeste 0 1007.6 -0.6 26
2019-08-11 13:00:00 34.3 20 Oeste 40 Oeste 0 1007.9 -0.1 28
2019-08-11 12:00:00 33.3 22 Oeste 37 Oeste 0 1008.2 0.2 31
2019-08-11 11:00:00 31.4 23 Oeste 36 Oeste 0 1008.2 0.3 35
2019-08-11 10:00:00 29.1 15 Oeste 30 Oeste 0 1008 0.2 40
2019-08-11 09:00:00 26.6 17 Oeste 29 Oeste 0 1008 0.4 43
2019-08-11 08:00:00 25.4 13 Oeste 22 Oeste 0 1007.9 0.3 44
2019-08-11 07:00:00 26.3 9 Oeste 17 Oeste 0 1007.8 0.5 43
2019-08-11 06:00:00 26.6 12 Oeste 21 Oeste 0 1007.6 0.6 43
2019-08-11 05:00:00 24.6 5 Oeste 12 Oeste 0 1007.6 0.4 61
2019-08-11 04:00:00 27 4 Sudeste 18 Oeste 0 1007.3 -0.2 61
2019-08-11 03:00:00 27.7 9 Oeste 16 Oeste 0 1007 -0.6 58
2019-08-11 02:00:00 28 9 Oeste 14 Oeste 0 1007.2 -0.4 59
2019-08-11 01:00:00 26.7 0 Calma 6 Noroeste 0 1007.5 0.8 65
2019-08-11 00:00:00 27.1 2 Sur 8 Sur 0 1007.6 1.7 62
2019-08-10 23:00:00 28.4 4 Sudeste 7 Sur 0 1007.6 1.7 56
2019-08-10 22:00:00 30.5 3 Sur 12 Este 0 1006.7 0.5 49
2019-08-10 21:00:00 32.2 6 Este 16 Este 0 1005.9 -0.7 46
2019-08-10 20:00:00 33.3 12 Este 19 Este 0 1005.9 -1.5 43
2019-08-10 19:00:00 33.4 12 Este 19 Este 0 1006.2 -2.1 43
2019-08-10 18:00:00 34.3 9 Este 22 Este 0 1006.6 -2.4 41
2019-08-10 17:00:00 33.9 13 Este 22 Este 0 1007.4 -1.5 41
2019-08-10 16:00:00 33.4 13 Este 26 Este 0 1008.3 -0.9 43
2019-08-10 15:00:00 34.6 17 Nordeste 27 Oeste 0 1009 -0.5 40
2019-08-10 14:00:00 37.9 19 Sudoeste 32 Sudoeste 0 1008.9 -0.7 34
2019-08-10 13:00:00 36.2 24 Sudoeste 35 Sudoeste 0 1009.2 -0.3 41
2019-08-10 12:00:00 34.3 26 Oeste 39 Oeste 0 1009.5 0.4 46
2019-08-10 11:00:00 31.6 23 Oeste 36 Oeste 0 1009.6 1 53
2019-08-10 10:00:00 29.3 21 Oeste 38 Oeste 0 1009.5 0.9 59
2019-08-10 09:00:00 27.5 21 Oeste 30 Oeste 0 1009.1 0.2 64
2019-08-10 08:00:00 26.9 14 Oeste 27 Oeste 0 1008.6 -0.1 65
2019-08-10 07:00:00 27.3 12 Oeste 23 Noroeste 0 1008.6 -0.7 62
2019-08-10 06:00:00 27.8 12 Oeste 22 Oeste 0 1008.9 -0.1 59
2019-08-10 05:00:00 28.4 13 Oeste 20 Oeste 0 1008.7 -0.1 56
2019-08-10 04:00:00 29 12 Oeste 22 Oeste 0 1009.3 0.4 52
2019-08-10 03:00:00 29.6 10 Oeste 23 Oeste 0 1009 0.6 40
2019-08-10 02:00:00 30.4 12 Oeste 17 Oeste 0 1008.8 0.7 34
2019-08-10 01:00:00 30.8 9 Oeste 18 Oeste 0 1008.9 1.8 30
2019-08-10 00:00:00 31.7 8 Oeste 14 Noroeste 0 1008.4 2 29
2019-08-09 23:00:00 33 8 Oeste 18 Noroeste 0 1008.1 2.2 28
2019-08-09 22:00:00 34.4 9 Noroeste 23 Noroeste 0 1007.1 1.3 28
2019-08-09 21:00:00 35.9 9 Noroeste 26 Noroeste 0 1006.4 0.3 28
2019-08-09 20:00:00 38 9 Norte 29 Norte 0 1005.9 -1.1 26
2019-08-09 19:00:00 39.1 9 Norte 23 Norte 0 1005.8 -1.8 26
2019-08-09 18:00:00 37 8 Este 21 Este 0 1006.1 -1.7 31
2019-08-09 17:00:00 38.3 13 Este 20 Este 0 1007 -1.3 26
2019-08-09 16:00:00 39.5 6 Sudeste 19 Noroeste 0 1007.6 -0.7 23
2019-08-09 15:00:00 39.7 7 Noroeste 26 Noroeste 0 1007.8 -0.5 21
2019-08-09 14:00:00 38.4 12 Oeste 27 Oeste 0 1008.3 0.2 23
2019-08-09 13:00:00 37.8 12 Oeste 26 Oeste 0 1008.3 0 24
2019-08-09 12:00:00 35.5 13 Oeste 27 Oeste 0 1008.3 -0.1 29
2019-08-09 11:00:00 33 16 Oeste 24 Oeste 0 1008.1 -0.2 35
2019-08-09 10:00:00 29.7 13 Oeste 21 Oeste 0 1008.3 0.1 40
2019-08-09 09:00:00 26.9 13 Oeste 23 Oeste 0 1008.4 0.3 41
2019-08-09 08:00:00 26.1 14 Noroeste 23 Oeste 0 1008.3 0.4 41
2019-08-09 07:00:00 25.8 11 Noroeste 19 Noroeste 0 1008.2 0.3 43
2019-08-09 06:00:00 25.8 12 Oeste 21 Oeste 0 1008.1 -0.2 47
2019-08-09 05:00:00 25.2 8 Noroeste 15 Noroeste 0 1007.9 -0.3 52
2019-08-09 04:00:00 24.2 8 Noroeste 12 Noroeste 0 1007.9 0 64
2019-08-09 03:00:00 23.6 3 Noroeste 5 Noroeste 0 1008.3 0.8 79
2019-08-09 02:00:00 24.2 3 Sudoeste 6 Sudoeste 0 1008.2 1 79
2019-08-09 01:00:00 24.6 0 Calma 6 Nordeste 0 1007.9 1.8 74
2019-08-09 00:00:00 24.7 5 Este 8 Sudeste 0 1007.5 1.8 73
2019-08-08 23:00:00 25.1 5 Sudeste 9 Sur 0 1007.2 1.7 67
2019-08-08 22:00:00 27.1 5 Sur 17 Nordeste 0 1006.1 0.5 64
2019-08-08 21:00:00 28.6 11 Este 16 Sudeste 0 1005.7 -0.1 50
2019-08-08 20:00:00 31.4 10 Sudeste 18 Este 0 1005.5 -0.6 37
2019-08-08 19:00:00 32 14 Sudeste 19 Sudeste 0 1005.6 -0.9 38
2019-08-08 18:00:00 32.4 13 Sudeste 22 Este 0 1005.8 -1 38
2019-08-08 17:00:00 31.1 15 Este 26 Sudeste 0 1006.1 -0.7 43
2019-08-08 16:00:00 31.8 14 Sudeste 24 Sudeste 0 1006.5 -0.5 41
2019-08-08 15:00:00 32.3 15 Sudeste 22 Sudeste 0 1006.8 -0.3 40
2019-08-08 14:00:00 33.7 15 Sudeste 21 Sudeste 0 1006.8 -0.2 35
2019-08-08 13:00:00 32.7 13 Sudeste 18 Sudeste 0 1007 0.3 44
2019-08-08 12:00:00 31.8 10 Este 14 Este 0 1007.1 0.9 44
2019-08-08 11:00:00 29.2 9 Sudeste 15 Este 0 1007 1.1 56
2019-08-08 10:00:00 30.1 5 Oeste 21 Oeste 0 1006.7 1.1 41
2019-08-08 09:00:00 27.7 14 Oeste 24 Oeste 0 1006.2 0.5 44
2019-08-08 08:00:00 26.7 10 Oeste 24 Oeste 0 1005.9 0.2 45
2019-08-08 07:00:00 27.3 15 Oeste 23 Oeste 0 1005.6 -0.1 44
2019-08-08 06:00:00 27.6 6 Oeste 18 Oeste 0 1005.7 0 42
2019-08-08 05:00:00 28.1 14 Oeste 22 Oeste 0 1005.7 -0.4 38
2019-08-08 04:00:00 29 15 Oeste 24 Oeste 0 1005.7 -0.3 35
2019-08-08 03:00:00 29.7 11 Oeste 20 Oeste 0 1005.7 -0.4 32
2019-08-08 02:00:00 30.6 10 Oeste 16 Noroeste 0 1006.1 0.4 31
2019-08-08 01:00:00 31.1 9 Oeste 15 Oeste 0 1006 1.4 29
2019-08-08 00:00:00 30.7 5 Oeste 9 Sudoeste 0 1006.1 2.3 28
2019-08-07 23:00:00 32.6 6 Oeste 18 Oeste 0 1005.7 2.2 26
2019-08-07 22:00:00 34.3 7 Oeste 19 Oeste 0 1004.6 1 26
2019-08-07 21:00:00 35.8 5 Noroeste 23 Noroeste 0 1003.8 0 24
2019-08-07 20:00:00 36.7 9 Norte 23 Nordeste 0 1003.5 -0.3 23
2019-08-07 19:00:00 37.1 9 Norte 27 Norte 0 1003.6 -0.3 21
2019-08-07 18:00:00 37.5 12 Noroeste 27 Noroeste 0 1003.8 -0.6 21
2019-08-07 17:00:00 38.6 9 Noroeste 32 Noroeste 0 1003.8 -1.1 20
2019-08-07 16:00:00 39.9 10 Oeste 32 Sudoeste 0 1003.9 -1.5 18
2019-08-07 15:00:00 39.9 14 Oeste 32 Oeste 0 1004.4 -1.1 18
2019-08-07 14:00:00 37.8 15 Oeste 30 Oeste 0 1004.9 -0.6 18
2019-08-07 13:00:00 37.6 19 Oeste 33 Oeste 0 1005.4 -0.1 22
2019-08-07 12:00:00 35.6 18 Oeste 29 Oeste 0 1005.5 0.4 26
2019-08-07 11:00:00 32.5 10 Oeste 22 Noroeste 0 1005.5 0.7 28
2019-08-07 10:00:00 29.7 12 Oeste 21 Noroeste 0 1005.5 1.1 27
2019-08-07 09:00:00 27.4 12 Noroeste 19 Noroeste 0 1005.1 0.8 29
2019-08-07 08:00:00 26.4 9 Oeste 19 Noroeste 0 1004.8 0.8 31
2019-08-07 07:00:00 26 5 Noroeste 15 Noroeste 0 1004.4 0 31
2019-08-07 06:00:00 26.8 8 Noroeste 19 Oeste 0 1004.3 -0.4 32
2019-08-07 05:00:00 26.5 7 Noroeste 13 Noroeste 0 1004 -0.8 37
2019-08-07 04:00:00 26.9 6 Noroeste 13 Noroeste 0 1004.4 -0.7 40
2019-08-07 03:00:00 26.4 7 Noroeste 12 Noroeste 0 1004.7 -0.8 43
2019-08-07 02:00:00 26.9 7 Noroeste 16 Oeste 0 1004.8 -0.7 46
2019-08-07 01:00:00 25.2 5 Norte 13 Noroeste 0 1005.1 0.1 53
2019-08-07 00:00:00 24.1 4 Oeste 11 Oeste 0 1005.5 1.6 68
2019-08-06 23:00:00 24.5 4 Este 17 Este 0 1005.5 2.4 64
2019-08-06 22:00:00 25.1 14 Este 27 Este 0 1005 1.8 58
2019-08-06 21:00:00 28.6 15 Este 30 Este 0 1003.9 0.1 40
2019-08-06 20:00:00 30.8 14 Este 24 Este 0 1003.1 -1.3 35
2019-08-06 19:00:00 30.6 15 Este 24 Este 0 1003.2 -2.2 37
2019-08-06 18:00:00 31 12 Este 19 Sudeste 0 1003.8 -2.1 41
2019-08-06 17:00:00 31.5 12 Sudeste 21 Sudeste 0 1004.4 -2.2 41
2019-08-06 16:00:00 30.6 13 Sudeste 21 Este 0 1005.4 -1.1 47
2019-08-06 15:00:00 30 12 Este 22 Sudeste 0 1005.9 -1 55
2019-08-06 14:00:00 30.4 14 Sudeste 20 Este 0 1006.6 -0.4 50
2019-08-06 13:00:00 32.4 7 Sudeste 15 Sudeste 0 1006.5 -0.9 43
2019-08-06 12:00:00 30.2 7 Sudeste 14 Este 0 1006.9 0.2 53
2019-08-06 11:00:00 28.7 5 Sudeste 13 Sudeste 0 1007 0.3 61
2019-08-06 10:00:00 27.2 5 Sudeste 13 Este 0 1007.4 0.8 65
2019-08-06 09:00:00 26.5 4 Noroeste 14 Noroeste 0 1006.7 -0.2 49
2019-08-06 08:00:00 24.7 7 Noroeste 17 Noroeste 0 1006.7 -0.5 56
2019-08-06 07:00:00 23.4 8 Oeste 15 Noroeste 0 1006.6 -0.7 73
2019-08-06 06:00:00 22.4 5 Noroeste 12 Noroeste 0 1006.9 -0.4 89
2019-08-06 05:00:00 22.8 0 Calma 6 Oeste 0 1007.2 -0.6 90
2019-08-06 04:00:00 22.9 4 Oeste 11 Noroeste 0 1007.3 -0.6 89
2019-08-06 03:00:00 23.3 0 Calma 7 Norte 0 1007.3 -0.3 89
2019-08-06 02:00:00 23.5 4 Este 9 Sudeste 0 1007.8 0.8 89
2019-08-06 01:00:00 23.7 6 Sudeste 12 Sudeste 0 1007.9 1.8 88
2019-08-06 00:00:00 24.7 6 Sudeste 12 Este 0 1007.6 1.9 79
2019-08-05 23:00:00 25.4 5 Sudoeste 11 Sudoeste 0 1007 1.7 70
2019-08-05 22:00:00 25.9 6 Este 15 Este 0 1006.1 0.3 70
2019-08-05 21:00:00 27 9 Sudeste 14 Este 0 1005.7 -0.4 55
2019-08-05 20:00:00 27 9 Sudeste 19 Sudeste 0 1005.3 -1 65
2019-08-05 19:00:00 27.5 13 Sudeste 22 Sudeste 0 1005.8 -1.1 62
2019-08-05 18:00:00 28.9 14 Sudeste 23 Sudeste 0 1006.1 -1.2 55
2019-08-05 17:00:00 28.7 17 Sudeste 24 Sudeste 0 1006.3 -1.2 58
2019-08-05 16:00:00 28.9 15 Sudeste 26 Sudeste 0 1006.9 -0.9 59
2019-08-05 15:00:00 28.3 17 Sudeste 28 Sudeste 0 1007.3 0.3 61
2019-08-05 14:00:00 28.2 18 Este 28 Sudeste 0 1007.5 0.2 55
2019-08-05 13:00:00 28.3 18 Sudeste 25 Sudeste 0 1007.8 -0.2 61
2019-08-05 12:00:00 30.4 10 Sudeste 21 Sudeste 0 1007 -0.8 56
2019-08-05 11:00:00 27.7 4 Sur 13 Sudeste 0 1007.3 -0.3 68
2019-08-05 10:00:00 25.9 10 Este 16 Sudeste 0 1008 0.7 70
2019-08-05 09:00:00 24.2 4 Sur 8 Sur 0 1007.8 0.5 77
2019-08-05 08:00:00 22.7 0 Calma 4 Sudeste 0 1007.6 -0.1 82
2019-08-05 07:00:00 22.5 3 Oeste 8 Norte 0 1007.3 -0.7 82
2019-08-05 06:00:00 22.7 4 Noroeste 8 Noroeste 0 1007.3 -1.1 83
2019-08-05 05:00:00 23 7 Oeste 11 Oeste 0 1007.7 -0.8 83
2019-08-05 04:00:00 23.4 5 Nordeste 12 Este 0 1008 0.4 82
2019-08-05 03:00:00 23.3 9 Este 16 Sudeste 0 1008.4 0.4 82
2019-08-05 02:00:00 23.9 7 Sudeste 17 Sudoeste 0 1008.5 0.4 80
2019-08-05 01:00:00 24.3 9 Noroeste 15 Oeste 0 1007.6 0.1 74
2019-08-05 00:00:00 23.7 5 Oeste 9 Sudeste 0 1008 1.3 82
2019-08-04 23:00:00 23.9 6 Sudeste 13 Sudeste 0 1008.1 1.8 80
2019-08-04 22:00:00 24.3 8 Sudeste 13 Sudeste 0 1007.5 1.1 74
2019-08-04 21:00:00 25.9 10 Sudeste 15 Sudeste 0 1006.7 0 58
2019-08-04 20:00:00 27.4 11 Sudeste 17 Sudeste 0 1006.3 -0.6 53
2019-08-04 19:00:00 28.9 12 Sudeste 22 Sudeste 0 1006.4 -0.7 43
2019-08-04 18:00:00 28.2 16 Sudeste 25 Sudeste 0 1006.7 -0.8 47
2019-08-04 17:00:00 28.7 16 Sudeste 27 Sudeste 0 1006.9 -0.9 49
2019-08-04 16:00:00 28.8 17 Sudeste 25 Sudeste 0 1007.1 -1.1 49
2019-08-04 15:00:00 28.8 14 Este 22 Sudeste 0 1007.5 -0.6 50
2019-08-04 14:00:00 28.7 14 Sudeste 22 Sudeste 0 1007.8 -0.2 52
2019-08-04 13:00:00 28.4 12 Sudeste 20 Este 0 1008.2 0.7 55
2019-08-04 12:00:00 27.5 13 Sudeste 20 Este 0 1008.1 0.6 61
2019-08-04 11:00:00 27.6 12 Este 17 Sudeste 0 1008 0.4 59
2019-08-04 10:00:00 27.5 0 Calma 14 Noroeste 0 1007.5 -0.1 58
2019-08-04 09:00:00 24.5 11 Noroeste 22 Oeste 0 1007.5 -0.4 71
2019-08-04 08:00:00 23.3 9 Noroeste 19 Noroeste 0 1007.6 -0.6 80
2019-08-04 07:00:00 22.9 8 Noroeste 14 Oeste 0 1007.6 -1.2 85
2019-08-04 06:00:00 23 9 Oeste 14 Oeste 0 1007.9 -1 88
2019-08-04 05:00:00 23.1 6 Oeste 11 Noroeste 0 1008.2 -1.1 90
2019-08-04 04:00:00 23.1 4 Oeste 7 Sudoeste 0 1008.8 -0.3 90
2019-08-04 03:00:00 23.3 3 Sudoeste 7 Este 0 1008.9 0.6 89
2019-08-04 02:00:00 23.5 6 Sudeste 13 Este 0 1009.3 1.4 89
2019-08-04 01:00:00 23.7 10 Sudeste 14 Sudeste 0 1009.1 1.7 83
2019-08-04 00:00:00 24.5 6 Sudeste 9 Sudeste 0 1008.3 1.6 82
2019-08-03 23:00:00 24.8 4 Sudeste 14 Este 0 1007.9 1.6 82
2019-08-03 22:00:00 24.6 8 Este 16 Este 0 1007.4 0.7 82
2019-08-03 21:00:00 25.3 12 Sudeste 18 Sudeste 0 1006.7 -0.5 74
2019-08-03 20:00:00 26.9 9 Sudeste 18 Sudeste 0 1006.3 -1.6 67
2019-08-03 19:00:00 27.6 12 Sudeste 21 Sudeste 0 1006.7 -1.1 62
2019-08-03 18:00:00 27.9 15 Sudeste 22 Sudeste 0 1007.2 -0.8 59
2019-08-03 17:00:00 29.1 15 Sudeste 28 Sudeste 0 1007.9 -0.6 58
2019-08-03 16:00:00 29.9 16 Sudeste 22 Sudeste 0 1007.8 -1.2 50
2019-08-03 15:00:00 30.5 12 Sudeste 20 Sudeste 0 1008 -1.4 47
2019-08-03 14:00:00 30.5 13 Sudeste 20 Sudeste 0 1008.5 -0.8 50
2019-08-03 13:00:00 29.4 10 Sudeste 17 Sudeste 0 1009 0.2 58
2019-08-03 12:00:00 28.3 10 Sudeste 21 Sudeste 0 1009.4 0.8 64
2019-08-03 11:00:00 27.8 11 Sudeste 18 Sur 0 1009.3 1.1 65
2019-08-03 10:00:00 26.5 6 Sudeste 10 Sudeste 0 1008.8 0.9 68
2019-08-03 09:00:00 23.7 2 Oeste 12 Oeste 0 1008.6 0.7 89
2019-08-03 08:00:00 22.3 8 Oeste 12 Oeste 0 1008.2 0.4 94
2019-08-03 07:00:00 22.3 5 Oeste 9 Noroeste 0 1007.9 0 94
2019-08-03 06:00:00 22.7 3 Noroeste 7 Noroeste 0 1007.9 -0.6 94
2019-08-03 05:00:00 22.9 4 Oeste 11 Oeste 0 1007.8 -1.1 94
2019-08-03 04:00:00 23.3 8 Oeste 12 Oeste 0 1007.9 -1 94
2019-08-03 03:00:00 23.5 6 Noroeste 8 Noroeste 0 1008.5 -0.4 94
2019-08-03 02:00:00 23.6 3 Oeste 9 Sudeste 0 1008.9 0.7 92
2019-08-03 01:00:00 23.8 8 Sudeste 16 Este 0 1008.9 1.5 91
2019-08-03 00:00:00 23.8 10 Sudeste 16 Sudeste 0 1008.9 2.4 89
2019-08-02 23:00:00 24.1 10 Este 15 Este 0 1008.2 2 89
2019-08-02 22:00:00 24.6 9 Este 15 Este 0 1007.4 0.9 85
2019-08-02 21:00:00 26.2 9 Sudeste 14 Sudeste 0 1006.5 -0.7 68
2019-08-02 20:00:00 27.5 9 Sudeste 16 Sudeste 0 1006.2 -1.6 64
2019-08-02 19:00:00 27.4 10 Sudeste 20 Sudeste 0 1006.5 -1.4 65
2019-08-02 18:00:00 27.3 13 Sudeste 22 Sudeste 0 1007.2 -1.2 65
2019-08-02 17:00:00 27.3 15 Sudeste 26 Sudeste 0 1007.8 -0.7 68
2019-08-02 16:00:00 28.1 13 Sudeste 28 Sudeste 0 1007.9 -0.6 64
2019-08-02 15:00:00 27.4 20 Sudeste 28 Sudeste 0 1008.4 0.5 67
2019-08-02 14:00:00 27.2 17 Este 28 Este 0 1008.5 1.1 68
2019-08-02 13:00:00 26.8 17 Sudeste 24 Sudeste 0 1008.5 1.8 73
2019-08-02 12:00:00 26.3 14 Sudeste 23 Sudeste 0 1007.9 1.1 74
2019-08-02 11:00:00 27.5 11 Sudeste 19 Sudeste 0 1007.4 0.4 67
2019-08-02 10:00:00 27.2 12 Oeste 21 Noroeste 0 1006.7 -0.5 64
2019-08-02 09:00:00 24.2 10 Noroeste 18 Noroeste 0 1006.8 -0.7 83
2019-08-02 08:00:00 22.6 7 Noroeste 17 Oeste 0 1007 -1.1 91
2019-08-02 07:00:00 22.3 7 Noroeste 18 Noroeste 0 1007.2 -0.9 91
2019-08-02 06:00:00 22.6 6 Oeste 9 Noroeste 0 1007.5 -0.5 91
2019-08-02 05:00:00 22.8 3 Oeste 5 Noroeste 0 1008.1 -0.1 89
2019-08-02 04:00:00 23.1 3 Sudoeste 7 Sur 0 1008.1 0.2 88
2019-08-02 03:00:00 23.6 4 Sudeste 8 Sudeste 0 1008 0.4 86
2019-08-02 02:00:00 23.8 5 Sudeste 10 Sudeste 0 1008.2 1.1 86
2019-08-02 01:00:00 23.9 6 Este 12 Sudeste 0 1007.9 1.4 82
2019-08-02 00:00:00 24.1 6 Este 14 Sudeste 0 1007.6 1.8 79
2019-08-01 23:00:00 24.9 9 Sudeste 15 Este 0 1007.1 1.9 76
2019-08-01 22:00:00 24.9 11 Este 22 Sudeste 0 1006.5 1.5 74
2019-08-01 21:00:00 25.7 12 Este 24 Sudeste 0 1005.8 0.5 70
2019-08-01 20:00:00 27.1 12 Sudeste 23 Sudeste 0 1005.2 -0.8 64
2019-08-01 19:00:00 28.3 13 Sudeste 26 Sudeste 0 1005 -1.1 59
2019-08-01 18:00:00 29.1 14 Sudeste 26 Este 0 1005.3 -1.3 56
2019-08-01 17:00:00 30.1 18 Sudeste 29 Sudeste 0 1006 -1.1 53
2019-08-01 16:00:00 29.8 15 Sudeste 24 Sudeste 0 1006.1 -0.8 55
2019-08-01 15:00:00 29 16 Sudeste 26 Sudeste 0 1006.6 -0.3 58
2019-08-01 14:00:00 30.2 17 Sudeste 31 Sudeste 0 1007.1 0.1 53
2019-08-01 13:00:00 31.7 16 Sudeste 27 Sur 0 1006.9 -0.2 52
2019-08-01 12:00:00 30.7 7 Sudeste 15 Sudeste 0 1006.9 0.3 56
2019-08-01 11:00:00 29.1 4 Sur 14 Oeste 0 1007 0 59
2019-08-01 10:00:00 27.5 8 Oeste 15 Oeste 0 1007.1 0.4 65
2019-08-01 09:00:00 24.8 5 Noroeste 14 Noroeste 0 1006.6 -0.2 77
2019-08-01 08:00:00 23.8 7 Noroeste 15 Norte 0 1007 -0.1 80
2019-08-01 07:00:00 23.8 4 Noroeste 8 Norte 0 1006.7 -0.4 82
2019-08-01 06:00:00 23.8 4 Oeste 12 Sudoeste 0 1006.8 -0.6 82
2019-08-01 05:00:00 23.8 3 Sur 8 Sur 0 1007.1 -0.4 80
2019-08-01 04:00:00 24.2 3 Noroeste 6 Noroeste 0 1007.1 -0.4 79
2019-08-01 03:00:00 24.3 3 Noroeste 6 Noroeste 0 1007.4 0.3 79
2019-08-01 02:00:00 24.4 3 Oeste 8 Oeste 0 1007.5 0.4 79
2019-08-01 01:00:00 24.6 5 Oeste 11 Sudoeste 0 1007.5 0.5 79
2019-08-01 00:00:00 24.8 6 Sudoeste 12 Oeste 0 1007.1 0.4 77
2019-07-31 23:00:00 25.1 3 Sudeste 16 Este 0 1007.1 1.1 76
2019-07-31 22:00:00 25.3 8 Este 20 Sudeste 0 1007 1.3 76
2019-07-31 21:00:00 26.1 9 Sur 19 Sur 0 1006.7 1 71
2019-07-31 20:00:00 27.2 14 Sur 25 Sudeste 0 1006 0.1 65
2019-07-31 19:00:00 28.5 16 Sudeste 27 Sudeste 0 1005.7 -0.6 59
2019-07-31 18:00:00 29.8 13 Sudeste 24 Sudeste 0 1005.7 -1 56
2019-07-31 17:00:00 30.3 14 Sudeste 25 Sudeste 0 1005.9 -1.1 52
2019-07-31 16:00:00 30 14 Sudeste 29 Sudeste 0 1006.3 -1.1 52
2019-07-31 15:00:00 29.8 17 Sudeste 30 Este 0 1006.7 -1.2 52
2019-07-31 14:00:00 31 13 Sudeste 22 Sudeste 0 1007 -0.7 49
2019-07-31 13:00:00 29.6 10 Sur 23 Sur 0 1007.4 -0.4 56
2019-07-31 12:00:00 28.5 10 Sudeste 21 Sur 0 1007.9 0.3 61
2019-07-31 11:00:00 28.2 11 Sudeste 21 Sudeste 0 1007.7 0.1 64
2019-07-31 10:00:00 25.7 7 Este 23 Nordeste 0 1007.8 0.8 73
2019-07-31 09:00:00 24.4 3 Sur 8 Sudeste 0 1007.6 1 83
2019-07-31 08:00:00 23.4 0 Calma 6 Sudeste 0 1007.6 2 86
2019-07-31 07:00:00 23.3 2 Sudeste 6 Sudeste 0 1007 1.4 85
2019-07-31 06:00:00 23.1 4 Oeste 15 Noroeste 0 1006.6 -0.3 82
2019-07-31 05:00:00 23.5 8 Noroeste 18 Noroeste 0 1005.6 -1.7 82
2019-07-31 04:00:00 23.7 11 Oeste 19 Oeste 0 1005.6 -2.2 82
2019-07-31 03:00:00 24 3 Sudeste 21 Sudeste 0 1006.9 -1.2 77
2019-07-31 02:00:00 24.5 13 Sudeste 21 Sudeste 0 1007.3 0.9 76
2019-07-31 01:00:00 24.2 12 Este 30 Sudeste 0 1007.8 2.9 85
2019-07-31 00:00:00 25 14 Sudeste 21 Este 0 1008.1 3.8 65
2019-07-30 23:00:00 26.6 10 Sudeste 14 Sudeste 0 1006.4 2.1 50
2019-07-30 22:00:00 27.1 0 Calma 7 Sudeste 0 1004.9 0.5 49
2019-07-30 21:00:00 28.1 5 Sudeste 15 Sudeste 0 1004.3 -0.4 47
2019-07-30 20:00:00 28.4 10 Sudeste 19 Este 0 1004.3 -0.6 49
2019-07-30 19:00:00 29.1 12 Sudeste 21 Sudeste 0 1004.4 -0.9 49
2019-07-30 18:00:00 29.6 14 Sudeste 23 Sudeste 0 1004.7 -1 47
2019-07-30 17:00:00 30.2 14 Este 21 Este 0 1004.9 -1.5 47
2019-07-30 16:00:00 29.8 15 Este 23 Sudeste 0 1005.3 -1.6 50
2019-07-30 15:00:00 28.8 14 Sudeste 25 Sudeste 0 1005.7 -1.1 59
2019-07-30 14:00:00 27.1 14 Sudeste 23 Sudeste 0 1006.4 -0.2 65
2019-07-30 13:00:00 26.6 12 Sudeste 22 Sudeste 0 1006.9 0.8 70
2019-07-30 12:00:00 26.5 12 Sudeste 19 Este 0 1006.8 0.8 68
2019-07-30 11:00:00 27.2 11 Sudeste 17 Este 0 1006.6 1 58
2019-07-30 10:00:00 29.3 10 Oeste 19 Oeste 0 1006.1 0.6 38
2019-07-30 09:00:00 26.9 8 Oeste 17 Oeste 0 1006 0.8 43
2019-07-30 08:00:00 25.1 9 Oeste 14 Oeste 0 1005.6 0.4 45
2019-07-30 07:00:00 25.2 5 Oeste 14 Noroeste 0 1005.5 0.8 45
2019-07-30 06:00:00 26.2 9 Oeste 20 Oeste 0 1005.2 0.4 45
2019-07-30 05:00:00 26.4 11 Oeste 20 Oeste 0 1005.2 0.1 46
2019-07-30 04:00:00 27.3 14 Oeste 22 Oeste 0 1004.7 -0.2 46
2019-07-30 03:00:00 28.1 10 Oeste 17 Oeste 0 1004.8 0.2 44
2019-07-30 02:00:00 27.2 5 Oeste 11 Oeste 0 1005.1 0.6 43
2019-07-30 01:00:00 28.8 6 Noroeste 16 Oeste 0 1004.9 1 41
2019-07-30 00:00:00 27.9 5 Noroeste 11 Oeste 0 1004.6 1.2 43
2019-07-29 23:00:00 24.9 4 Noroeste 8 Noroeste 0 1004.5 1.1 71
2019-07-29 22:00:00 24.7 0 Calma 10 Sudeste 0 1003.9 0.4 71
2019-07-29 21:00:00 26 5 Sudeste 15 Este 0 1003.4 -0.3 64
2019-07-29 20:00:00 26.7 12 Este 21 Este 0 1003.4 -0.7 61
2019-07-29 19:00:00 28 15 Este 22 Este 0 1003.5 -1.2 56
2019-07-29 18:00:00 28.1 15 Este 27 Este 0 1003.7 -1.4 56
2019-07-29 17:00:00 28.3 15 Este 25 Este 0 1004.1 -1 55
2019-07-29 16:00:00 27.8 17 Este 26 Este 0 1004.7 -0.8 55
2019-07-29 15:00:00 28.4 17 Este 24 Este 0 1005.1 -0.3 50
2019-07-29 14:00:00 28.2 15 Este 23 Este 0 1005.1 0 52
2019-07-29 13:00:00 28.8 12 Este 20 Este 0 1005.5 0.1 50
2019-07-29 12:00:00 29.6 10 Sudeste 17 Sudeste 0 1005.4 -0.2 49
2019-07-29 11:00:00 30.1 9 Oeste 15 Oeste 0 1005.1 -0.2 46
2019-07-29 10:00:00 27.2 8 Oeste 14 Oeste 0 1005.4 0.8 56
2019-07-29 09:00:00 24.1 0 Calma 9 Sudeste 0 1005.6 1.2 74
2019-07-29 08:00:00 22 5 Sudeste 13 Sudeste 0 1005.3 1 82
2019-07-29 07:00:00 23.2 0 Calma 8 Noroeste 0 1004.6 0.3 64
2019-07-29 06:00:00 23.1 4 Noroeste 9 Oeste 0 1004.4 -0.1 64
2019-07-29 05:00:00 22.3 4 Noroeste 7 Noroeste 0 1004.3 -0.3 70
2019-07-29 04:00:00 22 3 Oeste 7 Oeste 0 1004.3 -0.2 76
2019-07-29 03:00:00 22.7 0 Calma 4 Oeste 0 1004.5 0.1 74
2019-07-29 02:00:00 23.2 0 Calma 3 Oeste 0 1004.6 0.5 70
2019-07-29 01:00:00 23.6 0 Calma 4 Sudoeste 0 1004.5 1.2 68
2019-07-29 00:00:00 24.5 2 Sudoeste 6 Sudeste 0 1004.4 1.5 62
2019-07-28 23:00:00 25.8 4 Sudeste 12 Este 0 1004.1 1.6 55
2019-07-28 22:00:00 26.3 6 Este 13 Este 0 1003.3 1 50
2019-07-28 21:00:00 27.1 8 Este 18 Sudeste 0 1002.9 0.4 49
2019-07-28 20:00:00 28.3 13 Sudeste 20 Sudeste 0 1002.5 -0.3 46
2019-07-28 19:00:00 29.5 11 Este 21 Este 0 1002.3 -0.9 44
2019-07-28 18:00:00 29.7 13 Este 21 Sudeste 0 1002.5 -0.8 45
2019-07-28 17:00:00 30.3 15 Sudeste 22 Sudeste 0 1002.8 -0.7 43
2019-07-28 16:00:00 30.7 13 Este 26 Sudeste 0 1003.2 -0.4 43
2019-07-28 15:00:00 30.9 13 Sudeste 23 Sudeste 0 1003.3 -0.3 43
2019-07-28 14:00:00 30.8 14 Sudeste 22 Sudeste 0 1003.5 -0.2 44
2019-07-28 13:00:00 31.6 12 Sudeste 21 Sudeste 0 1003.6 0 44
2019-07-28 12:00:00 30.2 10 Sudoeste 24 Oeste 0 1003.6 0 47
2019-07-28 11:00:00 28.7 19 Oeste 28 Oeste 0 1003.7 0.2 53
2019-07-28 10:00:00 26.8 19 Oeste 30 Oeste 0 1003.6 0.5 61
2019-07-28 09:00:00 24.7 20 Oeste 30 Oeste 0 1003.6 0.5 65
2019-07-28 08:00:00 23 13 Oeste 25 Oeste 0 1003.5 0.2 70
2019-07-28 07:00:00 23 14 Oeste 26 Oeste 0 1003.1 -0.6 70
2019-07-28 06:00:00 23.4 13 Oeste 23 Oeste 0 1003.1 -1 70
2019-07-28 05:00:00 23.7 13 Oeste 22 Oeste 0 1003.3 -1.3 70
2019-07-28 04:00:00 24 13 Oeste 23 Noroeste 0 1003.7 -1.2 68
2019-07-28 03:00:00 24.2 15 Oeste 26 Noroeste 0 1004.1 -0.6 68
2019-07-28 02:00:00 24.5 9 Noroeste 20 Noroeste 0 1004.6 0.1 65
2019-07-28 01:00:00 25.1 6 Noroeste 14 Noroeste 0 1004.9 1 64
2019-07-28 00:00:00 25.6 6 Noroeste 21 Noroeste 0 1004.7 1.3 61
2019-07-27 23:00:00 26.1 10 Noroeste 29 Noroeste 0 1004.5 1.5 58
2019-07-26 12:00:00 32.2 13 Noroeste 29 Oeste 0 1005.9 -0.8 34
2019-07-26 11:00:00 30.6 9 Oeste 22 Oeste 0 1006.3 -0.3 40
2019-07-26 10:00:00 28.2 10 Oeste 14 Oeste 0 1006.6 0 44
2019-07-26 09:00:00 25.7 7 Oeste 13 Oeste 0 1006.7 0.1 52
2019-07-26 08:00:00 23.1 10 Oeste 15 Oeste 0 1006.6 -0.1 68
2019-07-26 07:00:00 22.4 7 Oeste 12 Oeste 0 1006.6 -0.3 79
2019-07-26 06:00:00 23.4 6 Noroeste 14 Noroeste 0 1006.6 -1 77
2019-07-26 05:00:00 23.3 7 Oeste 12 Noroeste 0 1006.7 -1.1 83
2019-07-26 04:00:00 23.4 5 Noroeste 10 Noroeste 0 1006.9 -0.9 91
2019-07-26 03:00:00 23.7 5 Oeste 8 Oeste 0 1007.6 -0.4 91
2019-07-26 02:00:00 24.3 3 Oeste 9 Sudeste 0 1007.8 0 88
2019-07-26 01:00:00 24.9 7 Sudeste 14 Este 0 1007.8 0.9 79
2019-07-26 00:00:00 25.4 8 Este 14 Este 0 1008 1.5 74
2019-07-25 23:00:00 25.7 8 Este 14 Sudeste 0 1007.8 1.8 71
2019-07-25 22:00:00 25.8 9 Sudeste 15 Sudeste 0 1006.9 0.6 71
2019-07-25 21:00:00 27.4 10 Este 18 Sudeste 0 1006.5 -0.4 65
2019-07-25 20:00:00 29.2 12 Sudeste 18 Este 0 1006 -1.2 50
2019-07-25 19:00:00 30.2 10 Sudeste 19 Sudeste 0 1006.3 -1.2 49
2019-07-25 18:00:00 30.8 10 Sudeste 23 Sudeste 0 1006.9 -1 46
2019-07-25 17:00:00 31.8 14 Sudeste 25 Sudeste 0 1007.2 -1 46
2019-07-25 16:00:00 31.9 14 Sudeste 24 Sudeste 0 1007.5 -0.6 44
2019-07-25 15:00:00 31.6 16 Sudeste 26 Sudeste 0 1007.9 -0.1 44
2019-07-25 14:00:00 32.9 16 Sur 25 Sur 0 1008.2 0.3 44
2019-07-25 13:00:00 32.4 11 Sudeste 20 Sudeste 0 1008.1 0.2 44
2019-07-25 12:00:00 31.1 11 Sudeste 17 Sudeste 0 1008 0.1 49
2019-07-25 11:00:00 30.5 5 Sudeste 8 Sur 0 1007.9 0.2 49
2019-07-25 10:00:00 28.5 5 Sudoeste 9 Sudoeste 0 1007.9 0.5 53
2019-07-25 09:00:00 25.4 4 Oeste 9 Oeste 0 1007.9 0.8 62
2019-07-25 08:00:00 23.2 5 Oeste 9 Oeste 0 1007.7 0.3 68
2019-07-25 07:00:00 23.7 5 Noroeste 12 Oeste 0 1007.4 -0.5 65
2019-07-25 06:00:00 23.9 8 Oeste 13 Oeste 0 1007.1 -0.9 65
2019-07-25 05:00:00 24.5 4 Noroeste 8 Noroeste 0 1007.4 -1.1 65
2019-07-25 04:00:00 24.3 5 Oeste 8 Noroeste 0 1007.9 -0.3 65
2019-07-25 03:00:00 25.1 3 Norte 5 Norte 0 1008 -0.3 68
2019-07-25 02:00:00 25.4 0 Calma 5 Sudoeste 0 1008.5 0.4 67
2019-07-25 01:00:00 25.7 0 Calma 6 Nordeste 0 1008.2 0.8 64
2019-07-25 00:00:00 26.1 4 Nordeste 8 Nordeste 0 1008.3 1.3 61
2019-07-24 23:00:00 26.6 5 Sudeste 12 Sudeste 0 1008.1 1.3 58
2019-07-24 22:00:00 27.2 7 Sudeste 14 Sudeste 0 1007.4 0.7 53
2019-07-24 21:00:00 28.2 10 Sudeste 18 Sudeste 0 1007 -0.2 50
2019-07-24 20:00:00 29.8 12 Sudeste 19 Sudeste 0 1006.8 -0.8 45
2019-07-24 19:00:00 31.4 9 Sudeste 20 Sur 0 1006.7 -1.3 41
2019-07-24 18:00:00 31.6 14 Sur 23 Sur 0 1007.2 -1 40
2019-07-24 17:00:00 32.5 13 Sudeste 26 Sur 0 1007.6 -0.9 41
2019-07-24 16:00:00 32.8 12 Sur 23 Sur 0 1008 -0.7 41
2019-07-24 15:00:00 33 14 Sur 25 Sur 0 1008.2 -0.7 42
2019-07-24 14:00:00 31.7 13 Sudeste 21 Sudeste 0 1008.5 -0.3 47
2019-07-24 13:00:00 30.8 11 Sudeste 19 Sudeste 0 1008.7 0.1 53
2019-07-24 12:00:00 29.5 12 Sudeste 20 Sudeste 0 1008.9 0.4 56
2019-07-24 11:00:00 28.9 8 Sudeste 15 Sudeste 0 1008.8 0.6 61
2019-07-24 10:00:00 27.7 4 Sudeste 9 Sudeste 0 1008.6 0.9 59
2019-07-24 09:00:00 24.6 0 Calma 4 Sudoeste 0 1008.5 0.9 76
2019-07-24 08:00:00 22.4 4 Oeste 6 Oeste 0 1008.2 0.3 83
2019-07-24 07:00:00 23 0 Calma 4 Sudoeste 0 1007.7 -0.9 85
2019-07-24 06:00:00 23.3 4 Sudoeste 9 Noroeste 0 1007.6 -1.2 82
2019-07-24 05:00:00 23.8 6 Noroeste 10 Noroeste 0 1007.9 -1.3 80
2019-07-24 04:00:00 23.7 4 Oeste 9 Noroeste 0 1008.6 -1 82
2019-07-24 03:00:00 24.4 4 Noroeste 9 Noroeste 0 1008.8 -0.8 83
2019-07-24 02:00:00 24.7 0 Calma 7 Sudeste 0 1009.2 0 83
2019-07-24 01:00:00 25 3 Sur 8 Este 0 1009.6 0.8 82
2019-07-24 00:00:00 25.4 5 Sudeste 13 Sudeste 0 1009.6 1.8 80
2019-07-23 23:00:00 25.6 10 Sudeste 19 Sudeste 0 1009.2 1.9 77
2019-07-23 22:00:00 26 9 Este 20 Sudeste 0 1008.8 1.1 71
2019-07-23 21:00:00 27.4 9 Sudeste 21 Sudeste 0 1007.8 -0.4 61
2019-07-23 20:00:00 28.7 10 Sudeste 18 Sudeste 0 1007.3 -1.2 50
2019-07-23 19:00:00 29.7 12 Sudeste 20 Sudeste 0 1007.7 -1.2 49
2019-07-23 18:00:00 30.2 14 Sudeste 25 Sudeste 0 1008.2 -1 47
2019-07-23 17:00:00 31.4 15 Sudeste 25 Sur 0 1008.5 -0.9 47
2019-07-23 16:00:00 31.7 17 Sur 26 Sudeste 0 1008.9 -0.3 45
2019-07-23 15:00:00 32.4 16 Sur 27 Sur 0 1009.2 0 43
2019-07-23 14:00:00 32.9 15 Sur 27 Sur 0 1009.4 0 40
2019-07-23 13:00:00 33.2 13 Sur 24 Sur 0 1009.2 -0.5 41
2019-07-23 12:00:00 31.6 3 Este 17 Sudoeste 0 1009.2 -0.5 44
2019-07-23 11:00:00 30.3 8 Sudoeste 15 Oeste 0 1009.4 -0.6 52
2019-07-23 10:00:00 28.2 7 Oeste 16 Oeste 0 1009.7 0.1 62
2019-07-23 09:00:00 25.6 4 Oeste 11 Noroeste 0 1009.7 0.3 79
2019-07-23 08:00:00 23.4 4 Oeste 9 Sudoeste 0 1010 0.7 88
2019-07-23 07:00:00 24.1 3 Oeste 8 Nordeste 0 1009.6 0.5 85
2019-07-23 06:00:00 24.3 4 Nordeste 9 Este 0 1009.4 0.1 85
2019-07-23 05:00:00 24.7 5 Este 8 Nordeste 0 1009.3 -0.5 83
2019-07-23 04:00:00 24.8 3 Nordeste 9 Oeste 0 1009.1 -1.9 84
2019-07-23 03:00:00 25.1 7 Noroeste 18 Noroeste 0 1009.3 -2.5 85
2019-07-23 02:00:00 25.3 11 Oeste 19 Oeste 0 1009.8 -2.2 83
2019-07-23 01:00:00 25.6 0 Calma 10 Sudeste 0 1011 -0.1 82
2019-07-23 00:00:00 25.8 2 Sudeste 14 Sudeste 0 1011.8 1.4 82
2019-07-22 23:00:00 25.9 6 Sudeste 18 Sudeste 0 1012 2.5 80
2019-07-22 22:00:00 26 8 Sur 21 Sudeste 0 1011.1 1.3 80
2019-07-22 21:00:00 26.7 12 Sur 22 Sur 0 1010.4 0.1 75
2019-07-22 20:00:00 28.1 11 Sur 18 Sudeste 0 1009.5 -1.6 67
2019-07-22 19:00:00 28.9 10 Sur 19 Sur 0 1009.8 -1.5 61
2019-07-22 18:00:00 29.9 10 Sur 27 Sur 0 1010.3 -1.2 56
2019-07-22 17:00:00 30.7 15 Sudeste 24 Sudeste 0 1011.1 -0.8 53
2019-07-22 16:00:00 31.2 14 Sudeste 26 Sur 0 1011.3 -1.3 50
2019-07-22 15:00:00 31.1 12 Sudeste 22 Sudeste 0 1011.5 -1.1 50
2019-07-22 14:00:00 30.4 11 Sudeste 19 Sudeste 0 1011.9 -0.6 59
2019-07-22 13:00:00 29.7 13 Sudeste 20 Sudeste 0 1012.6 0.2 64
2019-07-22 12:00:00 28.8 12 Sudeste 19 Sudeste 0 1012.6 0.2 68
2019-07-22 11:00:00 27.3 10 Sudeste 18 Sudeste 0 1012.5 0.3 74
2019-07-22 10:00:00 27 7 Sudeste 14 Este 0 1012.4 0.5 77
2019-07-22 09:00:00 25.3 3 Sur 9 Este 0 1012.4 0.8 89
2019-07-22 08:00:00 24.3 6 Este 10 Nordeste 0 1012.2 0.5 91
2019-07-22 07:00:00 24 4 Sudeste 6 Sudeste 0 1011.9 -0.2 89
2019-07-22 06:00:00 24 7 Sudoeste 10 Nordeste 0 1011.6 -0.4 88
2019-07-22 05:00:00 24.6 5 Nordeste 19 Nordeste 0 1011.7 0 89
2019-07-22 04:00:00 24.8 3 Este 9 Este 0 1012.1 -0.3 88
2019-07-22 03:00:00 24.9 4 Sudoeste 15 Oeste 0 1012 -1.2 83
2019-07-22 02:00:00 25.5 6 Oeste 12 Oeste 0 1011.7 -1.4 83
2019-07-22 01:00:00 25.5 4 Norte 10 Nordeste 0 1012.4 0.2 85
2019-07-22 00:00:00 25.4 4 Este 12 Sur 0 1013.2 2.3 85